sensor_id;sensor_type;location;lat;lon;timestamp;P1;durP1;ratioP1;P2;durP2;ratioP2
15693;SDS011;7947;48.834;9.132;2023-02-12T00:03:54;22.33;;;13.00;;
15693;SDS011;7947;48.834;9.132;2023-02-12T00:11:38;21.67;;;13.30;;
15693;SDS011;7947;48.834;9.132;2023-02-12T00:15:36;23.10;;;14.33;;
15693;SDS011;7947;48.834;9.132;2023-02-12T00:19:36;23.33;;;13.50;;
15693;SDS011;7947;48.834;9.132;2023-02-12T00:23:04;21.00;;;12.60;;
15693;SDS011;7947;48.834;9.132;2023-02-12T00:55:51;23.80;;;13.20;;
15693;SDS011;7947;48.834;9.132;2023-02-12T00:59:43;26.83;;;14.03;;
15693;SDS011;7947;48.834;9.132;2023-02-12T01:03:32;20.77;;;12.77;;
15693;SDS011;7947;48.834;9.132;2023-02-12T01:07:25;23.00;;;14.20;;
15693;SDS011;7947;48.834;9.132;2023-02-12T01:11:25;20.77;;;13.43;;
15693;SDS011;7947;48.834;9.132;2023-02-12T01:15:36;24.63;;;13.90;;
15693;SDS011;7947;48.834;9.132;2023-02-12T01:22:52;23.77;;;13.17;;
15693;SDS011;7947;48.834;9.132;2023-02-12T01:26:28;19.87;;;12.93;;
15693;SDS011;7947;48.834;9.132;2023-02-12T01:30:14;22.40;;;14.30;;
15693;SDS011;7947;48.834;9.132;2023-02-12T01:34:13;21.30;;;12.90;;
15693;SDS011;7947;48.834;9.132;2023-02-12T01:37:41;20.43;;;13.17;;
15693;SDS011;7947;48.834;9.132;2023-02-12T01:41:03;22.10;;;13.93;;
15693;SDS011;7947;48.834;9.132;2023-02-12T01:49:16;26.03;;;14.63;;
15693;SDS011;7947;48.834;9.132;2023-02-12T01:52:46;21.80;;;13.50;;
15693;SDS011;7947;48.834;9.132;2023-02-12T01:56:13;24.23;;;14.50;;
15693;SDS011;7947;48.834;9.132;2023-02-12T02:00:32;21.33;;;13.53;;
15693;SDS011;7947;48.834;9.132;2023-02-12T02:04:50;19.53;;;12.50;;
15693;SDS011;7947;48.834;9.132;2023-02-12T02:08:21;23.57;;;14.47;;
15693;SDS011;7947;48.834;9.132;2023-02-12T02:15:46;24.53;;;13.93;;
15693;SDS011;7947;48.834;9.132;2023-02-12T02:19:23;22.80;;;13.23;;
15693;SDS011;7947;48.834;9.132;2023-02-12T02:36:12;22.53;;;13.40;;
15693;SDS011;7947;48.834;9.132;2023-02-12T02:40:12;23.80;;;13.50;;
15693;SDS011;7947;48.834;9.132;2023-02-12T02:44:08;21.70;;;12.37;;
15693;SDS011;7947;48.834;9.132;2023-02-12T02:48:07;19.80;;;12.40;;
15693;SDS011;7947;48.834;9.132;2023-02-12T02:51:47;22.10;;;13.00;;
15693;SDS011;7947;48.834;9.132;2023-02-12T02:55:51;24.80;;;13.33;;
15693;SDS011;7947;48.834;9.132;2023-02-12T02:59:57;23.07;;;12.83;;
15693;SDS011;7947;48.834;9.132;2023-02-12T03:07:24;19.23;;;12.00;;
15693;SDS011;7947;48.834;9.132;2023-02-12T03:11:27;23.17;;;13.17;;
15693;SDS011;7947;48.834;9.132;2023-02-12T03:15:12;21.60;;;13.23;;
15693;SDS011;7947;48.834;9.132;2023-02-12T03:18:50;21.90;;;12.83;;
15693;SDS011;7947;48.834;9.132;2023-02-12T03:22:30;22.47;;;12.93;;
15693;SDS011;7947;48.834;9.132;2023-02-12T03:26:07;20.97;;;12.87;;
15693;SDS011;7947;48.834;9.132;2023-02-12T03:37:24;24.13;;;12.83;;
15693;SDS011;7947;48.834;9.132;2023-02-12T03:41:21;24.40;;;12.67;;
15693;SDS011;7947;48.834;9.132;2023-02-12T03:44:50;20.57;;;12.20;;
15693;SDS011;7947;48.834;9.132;2023-02-12T03:48:59;19.67;;;12.47;;
15693;SDS011;7947;48.834;9.132;2023-02-12T03:52:59;19.47;;;12.83;;
15693;SDS011;7947;48.834;9.132;2023-02-12T03:56:36;21.50;;;12.60;;
15693;SDS011;7947;48.834;9.132;2023-02-12T04:00:25;19.67;;;11.50;;
15693;SDS011;7947;48.834;9.132;2023-02-12T04:03:56;20.33;;;12.70;;
15693;SDS011;7947;48.834;9.132;2023-02-12T04:07:37;25.20;;;12.53;;
15693;SDS011;7947;48.834;9.132;2023-02-12T04:11:12;23.10;;;13.20;;
15693;SDS011;7947;48.834;9.132;2023-02-12T04:23:15;19.63;;;12.37;;
15693;SDS011;7947;48.834;9.132;2023-02-12T04:27:02;23.50;;;14.03;;
15693;SDS011;7947;48.834;9.132;2023-02-12T04:30:46;23.17;;;14.13;;
15693;SDS011;7947;48.834;9.132;2023-02-12T04:34:36;25.17;;;13.73;;
15693;SDS011;7947;48.834;9.132;2023-02-12T04:38:05;23.50;;;14.30;;
15693;SDS011;7947;48.834;9.132;2023-02-12T04:41:36;23.43;;;13.80;;
15693;SDS011;7947;48.834;9.132;2023-02-12T04:45:34;23.20;;;14.37;;
15693;SDS011;7947;48.834;9.132;2023-02-12T04:49:49;28.33;;;16.53;;
15693;SDS011;7947;48.834;9.132;2023-02-12T04:53:39;26.53;;;15.17;;
15693;SDS011;7947;48.834;9.132;2023-02-12T04:57:24;28.63;;;17.43;;
15693;SDS011;7947;48.834;9.132;2023-02-12T05:01:20;23.47;;;15.13;;
15693;SDS011;7947;48.834;9.132;2023-02-12T05:17:20;26.03;;;15.90;;
15693;SDS011;7947;48.834;9.132;2023-02-12T05:21:08;28.10;;;16.50;;
15693;SDS011;7947;48.834;9.132;2023-02-12T05:24:44;26.83;;;16.23;;
15693;SDS011;7947;48.834;9.132;2023-02-12T05:28:33;28.53;;;16.47;;
15693;SDS011;7947;48.834;9.132;2023-02-12T05:31:57;28.93;;;16.53;;
15693;SDS011;7947;48.834;9.132;2023-02-12T05:35:40;26.17;;;15.83;;
15693;SDS011;7947;48.834;9.132;2023-02-12T05:38:55;23.83;;;15.23;;
15693;SDS011;7947;48.834;9.132;2023-02-12T05:42:41;25.23;;;14.90;;
15693;SDS011;7947;48.834;9.132;2023-02-12T05:46:19;25.63;;;14.83;;
15693;SDS011;7947;48.834;9.132;2023-02-12T05:50:20;23.67;;;14.60;;
15693;SDS011;7947;48.834;9.132;2023-02-12T05:53:59;20.17;;;13.07;;
15693;SDS011;7947;48.834;9.132;2023-02-12T05:57:38;22.33;;;14.70;;
15693;SDS011;7947;48.834;9.132;2023-02-12T06:01:32;23.67;;;13.97;;
15693;SDS011;7947;48.834;9.132;2023-02-12T06:05:01;23.87;;;14.03;;
15693;SDS011;7947;48.834;9.132;2023-02-12T06:08:26;24.60;;;16.27;;
15693;SDS011;7947;48.834;9.132;2023-02-12T06:25:01;26.00;;;15.43;;
15693;SDS011;7947;48.834;9.132;2023-02-12T06:33:59;25.70;;;16.13;;
15693;SDS011;7947;48.834;9.132;2023-02-12T06:51:01;23.30;;;14.53;;
15693;SDS011;7947;48.834;9.132;2023-02-12T06:54:48;26.73;;;15.37;;
15693;SDS011;7947;48.834;9.132;2023-02-12T06:59:03;22.57;;;14.83;;
15693;SDS011;7947;48.834;9.132;2023-02-12T07:03:14;24.77;;;15.30;;
15693;SDS011;7947;48.834;9.132;2023-02-12T07:24:49;28.43;;;15.70;;
15693;SDS011;7947;48.834;9.132;2023-02-12T07:28:57;23.03;;;14.73;;
15693;SDS011;7947;48.834;9.132;2023-02-12T07:38:04;29.47;;;16.90;;
15693;SDS011;7947;48.834;9.132;2023-02-12T08:09:08;27.33;;;16.37;;
15693;SDS011;7947;48.834;9.132;2023-02-12T08:16:52;26.90;;;16.17;;
15693;SDS011;7947;48.834;9.132;2023-02-12T08:21:26;26.13;;;16.43;;
15693;SDS011;7947;48.834;9.132;2023-02-12T08:33:36;24.83;;;15.33;;
15693;SDS011;7947;48.834;9.132;2023-02-12T08:37:09;26.37;;;16.13;;
15693;SDS011;7947;48.834;9.132;2023-02-12T09:31:44;32.60;;;18.13;;
15693;SDS011;7947;48.834;9.132;2023-02-12T09:36:00;30.80;;;17.97;;
15693;SDS011;7947;48.834;9.132;2023-02-12T11:07:27;19.07;;;11.10;;
15693;SDS011;7947;48.834;9.132;2023-02-12T11:12:01;15.97;;;10.37;;
15693;SDS011;7947;48.834;9.132;2023-02-12T11:16:34;14.40;;;9.03;;
15693;SDS011;7947;48.834;9.132;2023-02-12T11:34:49;16.00;;;9.43;;
15693;SDS011;7947;48.834;9.132;2023-02-12T11:48:28;7.00;;;4.20;;
15693;SDS011;7947;48.834;9.132;2023-02-12T11:52:46;6.67;;;3.80;;
15693;SDS011;7947;48.834;9.132;2023-02-12T11:56:41;7.20;;;4.10;;
15693;SDS011;7947;48.834;9.132;2023-02-12T12:17:24;5.30;;;3.60;;
15693;SDS011;7947;48.834;9.132;2023-02-12T12:20:51;8.83;;;3.60;;
15693;SDS011;7947;48.834;9.132;2023-02-12T12:23:57;5.77;;;3.80;;
15693;SDS011;7947;48.834;9.132;2023-02-12T12:27:07;6.30;;;3.97;;
15693;SDS011;7947;48.834;9.132;2023-02-12T12:34:06;6.97;;;4.63;;
15693;SDS011;7947;48.834;9.132;2023-02-12T12:37:16;7.20;;;4.80;;
15693;SDS011;7947;48.834;9.132;2023-02-12T12:40:37;7.50;;;4.20;;
15693;SDS011;7947;48.834;9.132;2023-02-12T12:43:54;6.17;;;4.07;;
15693;SDS011;7947;48.834;9.132;2023-02-12T12:47:11;6.70;;;3.93;;
15693;SDS011;7947;48.834;9.132;2023-02-12T12:50:27;6.40;;;3.70;;
15693;SDS011;7947;48.834;9.132;2023-02-12T12:53:49;5.67;;;3.70;;
15693;SDS011;7947;48.834;9.132;2023-02-12T12:57:03;6.20;;;3.87;;
15693;SDS011;7947;48.834;9.132;2023-02-12T13:00:20;5.33;;;3.23;;
15693;SDS011;7947;48.834;9.132;2023-02-12T13:07:10;5.33;;;3.83;;
15693;SDS011;7947;48.834;9.132;2023-02-12T13:10:22;6.22;;;3.47;;
15693;SDS011;7947;48.834;9.132;2023-02-12T13:13:33;5.55;;;3.85;;
15693;SDS011;7947;48.834;9.132;2023-02-12T13:16:39;5.00;;;3.42;;
15693;SDS011;7947;48.834;9.132;2023-02-12T13:19:52;5.35;;;3.05;;
15693;SDS011;7947;48.834;9.132;2023-02-12T13:23:03;4.85;;;3.10;;
15693;SDS011;7947;48.834;9.132;2023-02-12T13:26:15;4.80;;;3.45;;
15693;SDS011;7947;48.834;9.132;2023-02-12T13:29:25;7.53;;;3.67;;
15693;SDS011;7947;48.834;9.132;2023-02-12T13:32:31;5.55;;;3.30;;
15693;SDS011;7947;48.834;9.132;2023-02-12T13:35:39;4.70;;;3.08;;
15693;SDS011;7947;48.834;9.132;2023-02-12T13:38:49;5.90;;;3.35;;
15693;SDS011;7947;48.834;9.132;2023-02-12T13:42:07;5.13;;;3.20;;
15693;SDS011;7947;48.834;9.132;2023-02-12T13:45:27;5.03;;;3.38;;
15693;SDS011;7947;48.834;9.132;2023-02-12T13:48:43;4.18;;;2.85;;
15693;SDS011;7947;48.834;9.132;2023-02-12T13:51:55;7.53;;;3.80;;
15693;SDS011;7947;48.834;9.132;2023-02-12T13:55:10;5.15;;;3.00;;
15693;SDS011;7947;48.834;9.132;2023-02-12T14:01:49;5.40;;;3.13;;
15693;SDS011;7947;48.834;9.132;2023-02-12T14:04:55;3.28;;;2.72;;
15693;SDS011;7947;48.834;9.132;2023-02-12T14:08:01;4.07;;;2.83;;
15693;SDS011;7947;48.834;9.132;2023-02-12T14:11:08;4.38;;;2.70;;
15693;SDS011;7947;48.834;9.132;2023-02-12T14:14:12;4.10;;;2.90;;
15693;SDS011;7947;48.834;9.132;2023-02-12T14:24:47;3.25;;;2.08;;
15693;SDS011;7947;48.834;9.132;2023-02-12T14:27:54;3.97;;;2.58;;
15693;SDS011;7947;48.834;9.132;2023-02-12T14:34:37;3.83;;;2.28;;
15693;SDS011;7947;48.834;9.132;2023-02-12T14:37:40;3.35;;;1.73;;
15693;SDS011;7947;48.834;9.132;2023-02-12T14:40:43;3.27;;;2.03;;
15693;SDS011;7947;48.834;9.132;2023-02-12T14:43:49;2.83;;;1.70;;
15693;SDS011;7947;48.834;9.132;2023-02-12T14:50:51;2.10;;;1.60;;
15693;SDS011;7947;48.834;9.132;2023-02-12T14:53:54;2.87;;;1.50;;
15693;SDS011;7947;48.834;9.132;2023-02-12T14:56:59;2.10;;;1.60;;
15693;SDS011;7947;48.834;9.132;2023-02-12T15:00:13;2.77;;;1.57;;
15693;SDS011;7947;48.834;9.132;2023-02-12T15:03:24;2.07;;;1.50;;
15693;SDS011;7947;48.834;9.132;2023-02-12T15:06:33;2.63;;;1.67;;
15693;SDS011;7947;48.834;9.132;2023-02-12T15:09:43;1.80;;;1.37;;
15693;SDS011;7947;48.834;9.132;2023-02-12T15:12:53;1.40;;;1.20;;
15693;SDS011;7947;48.834;9.132;2023-02-12T15:16:06;2.60;;;1.50;;
15693;SDS011;7947;48.834;9.132;2023-02-12T15:19:18;1.40;;;1.13;;
15693;SDS011;7947;48.834;9.132;2023-02-12T15:22:31;1.70;;;1.27;;
15693;SDS011;7947;48.834;9.132;2023-02-12T15:25:37;1.43;;;1.10;;
15693;SDS011;7947;48.834;9.132;2023-02-12T15:28:41;2.23;;;1.67;;
15693;SDS011;7947;48.834;9.132;2023-02-12T15:31:50;1.50;;;1.13;;
15693;SDS011;7947;48.834;9.132;2023-02-12T15:34:55;3.77;;;1.70;;
15693;SDS011;7947;48.834;9.132;2023-02-12T15:37:58;3.60;;;1.47;;
15693;SDS011;7947;48.834;9.132;2023-02-12T15:41:02;2.17;;;1.50;;
15693;SDS011;7947;48.834;9.132;2023-02-12T15:44:21;1.50;;;1.30;;
15693;SDS011;7947;48.834;9.132;2023-02-12T15:47:27;2.20;;;1.40;;
15693;SDS011;7947;48.834;9.132;2023-02-12T15:50:29;2.50;;;1.40;;
15693;SDS011;7947;48.834;9.132;2023-02-12T15:53:34;1.90;;;1.23;;
15693;SDS011;7947;48.834;9.132;2023-02-12T15:56:38;1.97;;;1.30;;
15693;SDS011;7947;48.834;9.132;2023-02-12T15:59:42;2.93;;;1.80;;
15693;SDS011;7947;48.834;9.132;2023-02-12T16:02:53;2.43;;;1.50;;
15693;SDS011;7947;48.834;9.132;2023-02-12T16:05:56;2.73;;;1.57;;
15693;SDS011;7947;48.834;9.132;2023-02-12T16:09:05;3.90;;;1.97;;
15693;SDS011;7947;48.834;9.132;2023-02-12T16:12:11;3.97;;;1.40;;
15693;SDS011;7947;48.834;9.132;2023-02-12T16:15:26;1.87;;;1.37;;
15693;SDS011;7947;48.834;9.132;2023-02-12T16:18:33;2.83;;;1.50;;
15693;SDS011;7947;48.834;9.132;2023-02-12T16:21:36;4.00;;;1.97;;
15693;SDS011;7947;48.834;9.132;2023-02-12T16:24:43;2.00;;;1.50;;
15693;SDS011;7947;48.834;9.132;2023-02-12T16:27:49;2.53;;;1.40;;
15693;SDS011;7947;48.834;9.132;2023-02-12T16:31:06;2.40;;;1.70;;
15693;SDS011;7947;48.834;9.132;2023-02-12T16:37:41;3.37;;;1.40;;
15693;SDS011;7947;48.834;9.132;2023-02-12T16:41:02;1.77;;;1.50;;
15693;SDS011;7947;48.834;9.132;2023-02-12T16:44:26;2.43;;;1.70;;
15693;SDS011;7947;48.834;9.132;2023-02-12T16:47:31;3.40;;;2.07;;
15693;SDS011;7947;48.834;9.132;2023-02-12T16:50:34;3.03;;;1.80;;
15693;SDS011;7947;48.834;9.132;2023-02-12T16:53:40;2.33;;;1.57;;
15693;SDS011;7947;48.834;9.132;2023-02-12T16:56:48;4.10;;;1.93;;
15693;SDS011;7947;48.834;9.132;2023-02-12T16:59:51;2.77;;;1.90;;
15693;SDS011;7947;48.834;9.132;2023-02-12T17:02:54;4.30;;;2.13;;
15693;SDS011;7947;48.834;9.132;2023-02-12T17:05:57;3.10;;;2.03;;
15693;SDS011;7947;48.834;9.132;2023-02-12T17:09:00;3.67;;;2.30;;
15693;SDS011;7947;48.834;9.132;2023-02-12T17:12:05;3.17;;;2.00;;
15693;SDS011;7947;48.834;9.132;2023-02-12T17:15:09;4.23;;;2.60;;
15693;SDS011;7947;48.834;9.132;2023-02-12T17:18:14;4.10;;;2.17;;
15693;SDS011;7947;48.834;9.132;2023-02-12T17:21:20;3.73;;;2.60;;
15693;SDS011;7947;48.834;9.132;2023-02-12T17:24:26;3.70;;;2.20;;
15693;SDS011;7947;48.834;9.132;2023-02-12T17:27:32;3.23;;;2.30;;
15693;SDS011;7947;48.834;9.132;2023-02-12T17:30:38;4.37;;;2.67;;
15693;SDS011;7947;48.834;9.132;2023-02-12T17:33:41;5.10;;;3.03;;
15693;SDS011;7947;48.834;9.132;2023-02-12T17:36:43;5.03;;;2.60;;
15693;SDS011;7947;48.834;9.132;2023-02-12T17:39:46;4.87;;;2.93;;
15693;SDS011;7947;48.834;9.132;2023-02-12T17:42:50;4.13;;;2.67;;
15693;SDS011;7947;48.834;9.132;2023-02-12T17:45:53;4.27;;;2.47;;
15693;SDS011;7947;48.834;9.132;2023-02-12T17:48:56;3.27;;;2.33;;
15693;SDS011;7947;48.834;9.132;2023-02-12T17:51:59;4.80;;;2.60;;
15693;SDS011;7947;48.834;9.132;2023-02-12T17:55:02;5.33;;;2.70;;
15693;SDS011;7947;48.834;9.132;2023-02-12T17:58:07;5.07;;;3.10;;
15693;SDS011;7947;48.834;9.132;2023-02-12T18:01:11;4.03;;;3.30;;
15693;SDS011;7947;48.834;9.132;2023-02-12T18:04:14;4.93;;;2.93;;
15693;SDS011;7947;48.834;9.132;2023-02-12T18:07:17;3.43;;;2.60;;
15693;SDS011;7947;48.834;9.132;2023-02-12T18:10:20;5.80;;;3.07;;
15693;SDS011;7947;48.834;9.132;2023-02-12T18:13:24;4.03;;;2.50;;
15693;SDS011;7947;48.834;9.132;2023-02-12T18:16:27;4.23;;;2.47;;
15693;SDS011;7947;48.834;9.132;2023-02-12T18:19:32;5.53;;;2.87;;
15693;SDS011;7947;48.834;9.132;2023-02-12T18:22:35;4.37;;;2.77;;
15693;SDS011;7947;48.834;9.132;2023-02-12T18:25:38;5.07;;;3.10;;
15693;SDS011;7947;48.834;9.132;2023-02-12T18:28:43;4.83;;;2.90;;
15693;SDS011;7947;48.834;9.132;2023-02-12T18:31:46;6.60;;;2.83;;
15693;SDS011;7947;48.834;9.132;2023-02-12T18:34:49;3.60;;;2.70;;
15693;SDS011;7947;48.834;9.132;2023-02-12T18:41:18;4.67;;;3.10;;
15693;SDS011;7947;48.834;9.132;2023-02-12T18:44:23;6.37;;;2.80;;
15693;SDS011;7947;48.834;9.132;2023-02-12T18:47:26;4.73;;;3.23;;
15693;SDS011;7947;48.834;9.132;2023-02-12T18:50:29;7.10;;;3.47;;
15693;SDS011;7947;48.834;9.132;2023-02-12T18:53:32;6.00;;;3.70;;
15693;SDS011;7947;48.834;9.132;2023-02-12T18:56:36;7.07;;;3.37;;
15693;SDS011;7947;48.834;9.132;2023-02-12T18:59:42;4.53;;;3.00;;
15693;SDS011;7947;48.834;9.132;2023-02-12T19:02:45;6.20;;;2.97;;
15693;SDS011;7947;48.834;9.132;2023-02-12T19:05:48;5.93;;;3.50;;
15693;SDS011;7947;48.834;9.132;2023-02-12T19:08:52;5.83;;;3.47;;
15693;SDS011;7947;48.834;9.132;2023-02-12T19:11:57;5.40;;;3.30;;
15693;SDS011;7947;48.834;9.132;2023-02-12T19:15:02;5.10;;;3.47;;
15693;SDS011;7947;48.834;9.132;2023-02-12T19:18:05;7.50;;;3.77;;
15693;SDS011;7947;48.834;9.132;2023-02-12T19:21:09;6.87;;;3.40;;
15693;SDS011;7947;48.834;9.132;2023-02-12T19:24:14;5.33;;;3.60;;
15693;SDS011;7947;48.834;9.132;2023-02-12T19:27:17;6.27;;;3.70;;
15693;SDS011;7947;48.834;9.132;2023-02-12T19:30:22;8.27;;;3.97;;
15693;SDS011;7947;48.834;9.132;2023-02-12T19:33:24;6.40;;;3.93;;
15693;SDS011;7947;48.834;9.132;2023-02-12T19:36:28;5.13;;;3.63;;
15693;SDS011;7947;48.834;9.132;2023-02-12T19:39:33;6.57;;;3.97;;
15693;SDS011;7947;48.834;9.132;2023-02-12T19:42:35;7.80;;;4.03;;
15693;SDS011;7947;48.834;9.132;2023-02-12T19:45:39;7.57;;;4.77;;
15693;SDS011;7947;48.834;9.132;2023-02-12T19:48:42;7.53;;;4.00;;
15693;SDS011;7947;48.834;9.132;2023-02-12T19:51:46;6.87;;;4.60;;
15693;SDS011;7947;48.834;9.132;2023-02-12T19:54:49;5.40;;;4.00;;
15693;SDS011;7947;48.834;9.132;2023-02-12T19:57:52;7.60;;;4.17;;
15693;SDS011;7947;48.834;9.132;2023-02-12T20:00:56;8.23;;;4.57;;
15693;SDS011;7947;48.834;9.132;2023-02-12T20:03:59;6.50;;;4.00;;
15693;SDS011;7947;48.834;9.132;2023-02-12T20:07:03;7.93;;;4.23;;
15693;SDS011;7947;48.834;9.132;2023-02-12T20:10:06;7.63;;;4.50;;
15693;SDS011;7947;48.834;9.132;2023-02-12T20:13:09;8.17;;;4.80;;
15693;SDS011;7947;48.834;9.132;2023-02-12T20:16:14;7.00;;;4.47;;
15693;SDS011;7947;48.834;9.132;2023-02-12T20:19:20;6.00;;;3.80;;
15693;SDS011;7947;48.834;9.132;2023-02-12T20:22:24;6.00;;;3.93;;
15693;SDS011;7947;48.834;9.132;2023-02-12T20:25:27;7.20;;;4.43;;
15693;SDS011;7947;48.834;9.132;2023-02-12T20:28:31;6.70;;;4.57;;
15693;SDS011;7947;48.834;9.132;2023-02-12T20:31:36;9.40;;;4.07;;
15693;SDS011;7947;48.834;9.132;2023-02-12T20:34:39;8.70;;;5.17;;
15693;SDS011;7947;48.834;9.132;2023-02-12T20:37:51;7.33;;;4.40;;
15693;SDS011;7947;48.834;9.132;2023-02-12T20:40:54;8.47;;;5.00;;
15693;SDS011;7947;48.834;9.132;2023-02-12T20:44:00;8.60;;;4.30;;
15693;SDS011;7947;48.834;9.132;2023-02-12T20:47:04;7.87;;;4.70;;
15693;SDS011;7947;48.834;9.132;2023-02-12T20:50:07;9.33;;;5.10;;
15693;SDS011;7947;48.834;9.132;2023-02-12T20:53:11;6.47;;;4.07;;
15693;SDS011;7947;48.834;9.132;2023-02-12T20:56:14;7.30;;;4.43;;
15693;SDS011;7947;48.834;9.132;2023-02-12T20:59:19;6.20;;;4.37;;
15693;SDS011;7947;48.834;9.132;2023-02-12T21:02:23;10.80;;;4.83;;
15693;SDS011;7947;48.834;9.132;2023-02-12T21:05:26;8.63;;;4.47;;
15693;SDS011;7947;48.834;9.132;2023-02-12T21:08:30;7.17;;;4.40;;
15693;SDS011;7947;48.834;9.132;2023-02-12T21:11:34;7.20;;;4.53;;
15693;SDS011;7947;48.834;9.132;2023-02-12T21:14:38;6.90;;;4.93;;
15693;SDS011;7947;48.834;9.132;2023-02-12T21:17:45;6.40;;;4.53;;
15693;SDS011;7947;48.834;9.132;2023-02-12T21:20:48;6.47;;;5.03;;
15693;SDS011;7947;48.834;9.132;2023-02-12T21:23:51;6.93;;;4.63;;
15693;SDS011;7947;48.834;9.132;2023-02-12T21:26:56;9.17;;;5.17;;
15693;SDS011;7947;48.834;9.132;2023-02-12T21:29:59;6.70;;;5.17;;
15693;SDS011;7947;48.834;9.132;2023-02-12T21:33:04;9.17;;;4.87;;
15693;SDS011;7947;48.834;9.132;2023-02-12T21:36:08;8.07;;;5.70;;
15693;SDS011;7947;48.834;9.132;2023-02-12T21:39:13;8.60;;;5.20;;
15693;SDS011;7947;48.834;9.132;2023-02-12T21:42:24;6.50;;;4.57;;
15693;SDS011;7947;48.834;9.132;2023-02-12T21:45:27;7.77;;;4.50;;
15693;SDS011;7947;48.834;9.132;2023-02-12T21:48:32;9.73;;;5.40;;
15693;SDS011;7947;48.834;9.132;2023-02-12T21:51:36;9.17;;;5.40;;
15693;SDS011;7947;48.834;9.132;2023-02-12T21:54:40;8.43;;;4.67;;
15693;SDS011;7947;48.834;9.132;2023-02-12T21:57:43;8.47;;;4.83;;
15693;SDS011;7947;48.834;9.132;2023-02-12T22:00:47;9.47;;;5.47;;
15693;SDS011;7947;48.834;9.132;2023-02-12T22:03:52;9.27;;;5.37;;
15693;SDS011;7947;48.834;9.132;2023-02-12T22:06:55;11.73;;;5.10;;
15693;SDS011;7947;48.834;9.132;2023-02-12T22:10:03;9.53;;;4.80;;
15693;SDS011;7947;48.834;9.132;2023-02-12T22:13:08;8.83;;;5.10;;
15693;SDS011;7947;48.834;9.132;2023-02-12T22:16:12;8.40;;;5.77;;
15693;SDS011;7947;48.834;9.132;2023-02-12T22:19:18;9.93;;;5.90;;
15693;SDS011;7947;48.834;9.132;2023-02-12T22:22:21;7.87;;;4.77;;
15693;SDS011;7947;48.834;9.132;2023-02-12T22:25:24;8.40;;;5.27;;
15693;SDS011;7947;48.834;9.132;2023-02-12T22:28:28;10.73;;;5.77;;
15693;SDS011;7947;48.834;9.132;2023-02-12T22:31:31;9.17;;;5.97;;
15693;SDS011;7947;48.834;9.132;2023-02-12T22:34:38;8.50;;;5.40;;
15693;SDS011;7947;48.834;9.132;2023-02-12T22:37:41;9.27;;;5.90;;
15693;SDS011;7947;48.834;9.132;2023-02-12T22:40:44;8.70;;;5.60;;
15693;SDS011;7947;48.834;9.132;2023-02-12T22:43:46;8.63;;;5.67;;
15693;SDS011;7947;48.834;9.132;2023-02-12T22:46:50;8.37;;;6.03;;
15693;SDS011;7947;48.834;9.132;2023-02-12T22:49:54;9.37;;;5.10;;
15693;SDS011;7947;48.834;9.132;2023-02-12T22:52:57;10.00;;;5.90;;
15693;SDS011;7947;48.834;9.132;2023-02-12T22:56:00;9.63;;;6.03;;
15693;SDS011;7947;48.834;9.132;2023-02-12T22:59:03;8.60;;;5.83;;
15693;SDS011;7947;48.834;9.132;2023-02-12T23:02:07;10.07;;;6.30;;
15693;SDS011;7947;48.834;9.132;2023-02-12T23:05:11;10.23;;;6.63;;
15693;SDS011;7947;48.834;9.132;2023-02-12T23:08:14;11.50;;;6.43;;
15693;SDS011;7947;48.834;9.132;2023-02-12T23:11:17;11.67;;;6.40;;
15693;SDS011;7947;48.834;9.132;2023-02-12T23:14:21;11.07;;;6.13;;
15693;SDS011;7947;48.834;9.132;2023-02-12T23:17:23;11.23;;;5.43;;
15693;SDS011;7947;48.834;9.132;2023-02-12T23:20:28;8.60;;;5.97;;
15693;SDS011;7947;48.834;9.132;2023-02-12T23:23:30;9.20;;;6.10;;
15693;SDS011;7947;48.834;9.132;2023-02-12T23:26:36;10.87;;;5.67;;
15693;SDS011;7947;48.834;9.132;2023-02-12T23:29:38;11.80;;;5.70;;
15693;SDS011;7947;48.834;9.132;2023-02-12T23:32:41;10.20;;;5.67;;
15693;SDS011;7947;48.834;9.132;2023-02-12T23:35:46;9.50;;;6.27;;
15693;SDS011;7947;48.834;9.132;2023-02-12T23:38:49;8.03;;;5.17;;
15693;SDS011;7947;48.834;9.132;2023-02-12T23:41:52;12.27;;;6.87;;
15693;SDS011;7947;48.834;9.132;2023-02-12T23:44:55;9.17;;;5.70;;
15693;SDS011;7947;48.834;9.132;2023-02-12T23:47:58;9.83;;;5.20;;
15693;SDS011;7947;48.834;9.132;2023-02-12T23:51:02;12.10;;;6.00;;
15693;SDS011;7947;48.834;9.132;2023-02-12T23:54:05;11.30;;;5.90;;
15693;SDS011;7947;48.834;9.132;2023-02-12T23:57:08;8.87;;;5.60;;
